sensor_id;sensor_type;location;lat;lon;timestamp;P1;durP1;ratioP1;P2;durP2;ratioP2
24261;SDS011;12385;51.412;5.540;2023-11-19T00:00:46;12.43;;;7.10;;
24261;SDS011;12385;51.412;5.540;2023-11-19T00:03:11;15.18;;;8.68;;
24261;SDS011;12385;51.412;5.540;2023-11-19T00:05:38;14.18;;;8.60;;
24261;SDS011;12385;51.412;5.540;2023-11-19T00:08:04;11.73;;;5.82;;
24261;SDS011;12385;51.412;5.540;2023-11-19T00:10:31;17.05;;;7.68;;
24261;SDS011;12385;51.412;5.540;2023-11-19T00:12:57;8.20;;;5.63;;
24261;SDS011;12385;51.412;5.540;2023-11-19T00:15:22;13.70;;;5.60;;
24261;SDS011;12385;51.412;5.540;2023-11-19T00:17:50;13.90;;;6.82;;
24261;SDS011;12385;51.412;5.540;2023-11-19T00:20:20;13.30;;;5.68;;
24261;SDS011;12385;51.412;5.540;2023-11-19T00:22:47;8.38;;;5.05;;
24261;SDS011;12385;51.412;5.540;2023-11-19T00:25:19;10.23;;;5.25;;
24261;SDS011;12385;51.412;5.540;2023-11-19T00:27:46;10.73;;;4.97;;
24261;SDS011;12385;51.412;5.540;2023-11-19T00:30:15;9.17;;;4.20;;
24261;SDS011;12385;51.412;5.540;2023-11-19T00:32:41;12.52;;;5.28;;
24261;SDS011;12385;51.412;5.540;2023-11-19T00:35:08;12.40;;;4.95;;
24261;SDS011;12385;51.412;5.540;2023-11-19T00:37:35;11.10;;;4.53;;
24261;SDS011;12385;51.412;5.540;2023-11-19T00:40:01;6.68;;;4.22;;
24261;SDS011;12385;51.412;5.540;2023-11-19T00:42:30;9.32;;;5.10;;
24261;SDS011;12385;51.412;5.540;2023-11-19T00:44:56;11.93;;;4.25;;
24261;SDS011;12385;51.412;5.540;2023-11-19T00:47:22;9.98;;;5.07;;
24261;SDS011;12385;51.412;5.540;2023-11-19T00:49:51;10.52;;;4.03;;
24261;SDS011;12385;51.412;5.540;2023-11-19T00:52:17;14.70;;;3.90;;
24261;SDS011;12385;51.412;5.540;2023-11-19T00:54:45;11.68;;;3.65;;
24261;SDS011;12385;51.412;5.540;2023-11-19T00:57:10;10.25;;;4.43;;
24261;SDS011;12385;51.412;5.540;2023-11-19T00:59:36;10.10;;;3.72;;
24261;SDS011;12385;51.412;5.540;2023-11-19T01:02:02;9.70;;;3.58;;
24261;SDS011;12385;51.412;5.540;2023-11-19T01:04:32;15.13;;;4.80;;
24261;SDS011;12385;51.412;5.540;2023-11-19T01:07:01;15.18;;;3.92;;
24261;SDS011;12385;51.412;5.540;2023-11-19T01:09:28;13.20;;;3.92;;
24261;SDS011;12385;51.412;5.540;2023-11-19T01:11:54;13.75;;;4.15;;
24261;SDS011;12385;51.412;5.540;2023-11-19T01:14:20;15.85;;;4.43;;
24261;SDS011;12385;51.412;5.540;2023-11-19T01:16:46;15.02;;;3.50;;
24261;SDS011;12385;51.412;5.540;2023-11-19T01:19:11;18.02;;;4.65;;
24261;SDS011;12385;51.412;5.540;2023-11-19T01:21:37;16.25;;;3.90;;
24261;SDS011;12385;51.412;5.540;2023-11-19T01:24:02;23.65;;;4.47;;
24261;SDS011;12385;51.412;5.540;2023-11-19T01:26:31;21.45;;;4.25;;
24261;SDS011;12385;51.412;5.540;2023-11-19T01:28:56;13.55;;;3.60;;
24261;SDS011;12385;51.412;5.540;2023-11-19T01:31:22;19.25;;;3.80;;
24261;SDS011;12385;51.412;5.540;2023-11-19T01:33:49;16.45;;;3.90;;
24261;SDS011;12385;51.412;5.540;2023-11-19T01:36:16;20.75;;;4.20;;
24261;SDS011;12385;51.412;5.540;2023-11-19T01:38:41;19.35;;;4.22;;
24261;SDS011;12385;51.412;5.540;2023-11-19T01:41:07;22.38;;;4.20;;
24261;SDS011;12385;51.412;5.540;2023-11-19T01:46:04;16.95;;;3.65;;
24261;SDS011;12385;51.412;5.540;2023-11-19T01:48:33;21.08;;;4.55;;
24261;SDS011;12385;51.412;5.540;2023-11-19T01:51:01;22.83;;;4.25;;
24261;SDS011;12385;51.412;5.540;2023-11-19T01:53:29;26.90;;;5.10;;
24261;SDS011;12385;51.412;5.540;2023-11-19T01:55:55;20.98;;;4.07;;
24261;SDS011;12385;51.412;5.540;2023-11-19T01:58:22;23.25;;;4.10;;
24261;SDS011;12385;51.412;5.540;2023-11-19T02:00:50;22.58;;;4.25;;
24261;SDS011;12385;51.412;5.540;2023-11-19T02:03:16;25.40;;;4.47;;
24261;SDS011;12385;51.412;5.540;2023-11-19T02:05:42;27.55;;;4.50;;
24261;SDS011;12385;51.412;5.540;2023-11-19T02:08:08;22.90;;;4.50;;
24261;SDS011;12385;51.412;5.540;2023-11-19T02:10:34;28.88;;;4.70;;
24261;SDS011;12385;51.412;5.540;2023-11-19T02:13:00;18.50;;;4.78;;
24261;SDS011;12385;51.412;5.540;2023-11-19T02:15:26;21.13;;;4.28;;
24261;SDS011;12385;51.412;5.540;2023-11-19T02:17:52;23.90;;;4.80;;
24261;SDS011;12385;51.412;5.540;2023-11-19T02:20:21;25.15;;;4.43;;
24261;SDS011;12385;51.412;5.540;2023-11-19T02:22:46;24.13;;;4.57;;
24261;SDS011;12385;51.412;5.540;2023-11-19T02:25:19;26.15;;;4.70;;
24261;SDS011;12385;51.412;5.540;2023-11-19T02:27:53;25.23;;;4.38;;
24261;SDS011;12385;51.412;5.540;2023-11-19T02:30:22;26.70;;;4.70;;
24261;SDS011;12385;51.412;5.540;2023-11-19T02:32:51;22.13;;;4.70;;
24261;SDS011;12385;51.412;5.540;2023-11-19T02:35:20;32.85;;;6.07;;
24261;SDS011;12385;51.412;5.540;2023-11-19T02:37:46;31.95;;;5.28;;
24261;SDS011;12385;51.412;5.540;2023-11-19T02:40:12;36.05;;;6.30;;
24261;SDS011;12385;51.412;5.540;2023-11-19T02:42:38;33.38;;;5.18;;
24261;SDS011;12385;51.412;5.540;2023-11-19T02:45:04;35.35;;;5.40;;
24261;SDS011;12385;51.412;5.540;2023-11-19T02:47:31;34.92;;;5.40;;
24261;SDS011;12385;51.412;5.540;2023-11-19T02:49:58;40.28;;;5.25;;
24261;SDS011;12385;51.412;5.540;2023-11-19T02:52:24;40.72;;;5.70;;
24261;SDS011;12385;51.412;5.540;2023-11-19T02:54:51;42.20;;;5.82;;
24261;SDS011;12385;51.412;5.540;2023-11-19T02:57:16;34.53;;;5.47;;
24261;SDS011;12385;51.412;5.540;2023-11-19T02:59:44;30.35;;;5.10;;
24261;SDS011;12385;51.412;5.540;2023-11-19T03:02:10;33.38;;;5.45;;
24261;SDS011;12385;51.412;5.540;2023-11-19T03:04:37;44.15;;;5.75;;
24261;SDS011;12385;51.412;5.540;2023-11-19T03:07:06;38.30;;;5.45;;
24261;SDS011;12385;51.412;5.540;2023-11-19T03:09:34;32.40;;;5.38;;
24261;SDS011;12385;51.412;5.540;2023-11-19T03:12:00;39.72;;;5.55;;
24261;SDS011;12385;51.412;5.540;2023-11-19T03:14:26;42.20;;;5.57;;
24261;SDS011;12385;51.412;5.540;2023-11-19T03:16:52;43.03;;;6.90;;
24261;SDS011;12385;51.412;5.540;2023-11-19T03:19:20;41.53;;;5.50;;
24261;SDS011;12385;51.412;5.540;2023-11-19T03:21:46;47.67;;;5.78;;
24261;SDS011;12385;51.412;5.540;2023-11-19T03:24:13;40.03;;;6.32;;
24261;SDS011;12385;51.412;5.540;2023-11-19T03:26:40;40.13;;;5.57;;
24261;SDS011;12385;51.412;5.540;2023-11-19T03:29:07;41.10;;;6.70;;
24261;SDS011;12385;51.412;5.540;2023-11-19T03:31:33;42.22;;;6.22;;
24261;SDS011;12385;51.412;5.540;2023-11-19T03:33:59;41.15;;;6.43;;
24261;SDS011;12385;51.412;5.540;2023-11-19T03:36:25;47.40;;;5.78;;
24261;SDS011;12385;51.412;5.540;2023-11-19T03:38:57;45.45;;;6.22;;
24261;SDS011;12385;51.412;5.540;2023-11-19T03:41:23;46.75;;;7.10;;
24261;SDS011;12385;51.412;5.540;2023-11-19T03:43:50;35.15;;;6.03;;
24261;SDS011;12385;51.412;5.540;2023-11-19T03:46:17;49.55;;;6.68;;
24261;SDS011;12385;51.412;5.540;2023-11-19T03:48:46;45.80;;;6.45;;
24261;SDS011;12385;51.412;5.540;2023-11-19T03:51:12;48.35;;;6.30;;
24261;SDS011;12385;51.412;5.540;2023-11-19T03:53:45;52.47;;;6.13;;
24261;SDS011;12385;51.412;5.540;2023-11-19T03:56:10;50.78;;;7.30;;
24261;SDS011;12385;51.412;5.540;2023-11-19T03:58:37;45.80;;;6.03;;
24261;SDS011;12385;51.412;5.540;2023-11-19T04:01:03;43.33;;;6.63;;
24261;SDS011;12385;51.412;5.540;2023-11-19T04:03:29;50.00;;;6.78;;
24261;SDS011;12385;51.412;5.540;2023-11-19T04:05:55;46.63;;;7.32;;
24261;SDS011;12385;51.412;5.540;2023-11-19T04:08:21;49.30;;;6.30;;
24261;SDS011;12385;51.412;5.540;2023-11-19T04:10:47;37.25;;;6.53;;
24261;SDS011;12385;51.412;5.540;2023-11-19T04:13:13;43.42;;;7.03;;
24261;SDS011;12385;51.412;5.540;2023-11-19T04:15:38;53.70;;;6.95;;
24261;SDS011;12385;51.412;5.540;2023-11-19T04:18:04;48.17;;;6.20;;
24261;SDS011;12385;51.412;5.540;2023-11-19T04:20:30;49.28;;;6.97;;
24261;SDS011;12385;51.412;5.540;2023-11-19T04:22:56;56.47;;;6.80;;
24261;SDS011;12385;51.412;5.540;2023-11-19T04:25:22;50.40;;;7.03;;
24261;SDS011;12385;51.412;5.540;2023-11-19T04:27:51;47.88;;;7.88;;
24261;SDS011;12385;51.412;5.540;2023-11-19T04:30:17;46.30;;;6.57;;
24261;SDS011;12385;51.412;5.540;2023-11-19T04:32:43;35.33;;;5.82;;
24261;SDS011;12385;51.412;5.540;2023-11-19T04:35:09;50.45;;;6.63;;
24261;SDS011;12385;51.412;5.540;2023-11-19T04:37:35;48.40;;;6.55;;
24261;SDS011;12385;51.412;5.540;2023-11-19T04:40:02;47.40;;;6.60;;
24261;SDS011;12385;51.412;5.540;2023-11-19T04:42:28;47.88;;;7.22;;
24261;SDS011;12385;51.412;5.540;2023-11-19T04:44:54;53.70;;;7.03;;
24261;SDS011;12385;51.412;5.540;2023-11-19T04:47:21;39.00;;;6.28;;
24261;SDS011;12385;51.412;5.540;2023-11-19T04:49:47;47.65;;;6.85;;
24261;SDS011;12385;51.412;5.540;2023-11-19T04:52:13;45.85;;;7.85;;
24261;SDS011;12385;51.412;5.540;2023-11-19T04:54:41;43.85;;;6.05;;
24261;SDS011;12385;51.412;5.540;2023-11-19T04:57:08;48.38;;;6.43;;
24261;SDS011;12385;51.412;5.540;2023-11-19T04:59:37;42.15;;;6.95;;
24261;SDS011;12385;51.412;5.540;2023-11-19T05:02:03;45.53;;;6.40;;
24261;SDS011;12385;51.412;5.540;2023-11-19T05:04:30;41.78;;;6.25;;
24261;SDS011;12385;51.412;5.540;2023-11-19T05:06:56;45.20;;;6.43;;
24261;SDS011;12385;51.412;5.540;2023-11-19T05:09:21;49.28;;;6.38;;
24261;SDS011;12385;51.412;5.540;2023-11-19T05:11:47;42.33;;;6.75;;
24261;SDS011;12385;51.412;5.540;2023-11-19T05:14:13;41.92;;;6.57;;
24261;SDS011;12385;51.412;5.540;2023-11-19T05:16:39;60.92;;;7.75;;
24261;SDS011;12385;51.412;5.540;2023-11-19T05:19:06;45.20;;;7.00;;
24261;SDS011;12385;51.412;5.540;2023-11-19T05:21:32;45.60;;;7.25;;
24261;SDS011;12385;51.412;5.540;2023-11-19T05:23:57;49.13;;;6.70;;
24261;SDS011;12385;51.412;5.540;2023-11-19T05:26:23;46.20;;;6.75;;
24261;SDS011;12385;51.412;5.540;2023-11-19T05:28:51;54.17;;;7.93;;
24261;SDS011;12385;51.412;5.540;2023-11-19T05:31:17;49.28;;;6.60;;
24261;SDS011;12385;51.412;5.540;2023-11-19T05:33:43;46.78;;;6.05;;
24261;SDS011;12385;51.412;5.540;2023-11-19T05:36:10;47.72;;;7.18;;
24261;SDS011;12385;51.412;5.540;2023-11-19T05:38:37;49.83;;;6.72;;
24261;SDS011;12385;51.412;5.540;2023-11-19T05:41:03;39.28;;;7.03;;
24261;SDS011;12385;51.412;5.540;2023-11-19T05:43:30;36.70;;;6.22;;
24261;SDS011;12385;51.412;5.540;2023-11-19T05:45:55;49.53;;;7.13;;
24261;SDS011;12385;51.412;5.540;2023-11-19T05:48:21;45.65;;;6.57;;
24261;SDS011;12385;51.412;5.540;2023-11-19T05:50:47;51.10;;;6.97;;
24261;SDS011;12385;51.412;5.540;2023-11-19T05:53:16;51.30;;;7.25;;
24261;SDS011;12385;51.412;5.540;2023-11-19T05:55:41;55.97;;;7.20;;
24261;SDS011;12385;51.412;5.540;2023-11-19T05:58:13;48.15;;;6.78;;
24261;SDS011;12385;51.412;5.540;2023-11-19T06:00:40;51.88;;;7.25;;
24261;SDS011;12385;51.412;5.540;2023-11-19T06:03:06;55.80;;;7.78;;
24261;SDS011;12385;51.412;5.540;2023-11-19T06:05:32;41.78;;;6.75;;
24261;SDS011;12385;51.412;5.540;2023-11-19T06:07:58;47.58;;;7.53;;
24261;SDS011;12385;51.412;5.540;2023-11-19T06:10:24;49.08;;;6.55;;
24261;SDS011;12385;51.412;5.540;2023-11-19T06:12:58;51.38;;;7.18;;
24261;SDS011;12385;51.412;5.540;2023-11-19T06:15:25;43.83;;;7.13;;
24261;SDS011;12385;51.412;5.540;2023-11-19T06:17:52;52.85;;;7.20;;
24261;SDS011;12385;51.412;5.540;2023-11-19T06:20:18;46.70;;;7.30;;
24261;SDS011;12385;51.412;5.540;2023-11-19T06:22:45;57.42;;;6.97;;
24261;SDS011;12385;51.412;5.540;2023-11-19T06:25:11;51.53;;;6.72;;
24261;SDS011;12385;51.412;5.540;2023-11-19T06:27:40;49.58;;;7.70;;
24261;SDS011;12385;51.412;5.540;2023-11-19T06:30:06;53.88;;;6.82;;
24261;SDS011;12385;51.412;5.540;2023-11-19T06:32:33;49.30;;;6.88;;
24261;SDS011;12385;51.412;5.540;2023-11-19T06:34:59;51.97;;;7.47;;
24261;SDS011;12385;51.412;5.540;2023-11-19T06:37:24;49.58;;;7.05;;
24261;SDS011;12385;51.412;5.540;2023-11-19T06:39:51;47.55;;;6.88;;
24261;SDS011;12385;51.412;5.540;2023-11-19T06:42:17;49.67;;;7.15;;
24261;SDS011;12385;51.412;5.540;2023-11-19T06:44:43;46.53;;;6.70;;
24261;SDS011;12385;51.412;5.540;2023-11-19T06:47:08;50.20;;;7.03;;
24261;SDS011;12385;51.412;5.540;2023-11-19T06:49:34;46.10;;;7.03;;
24261;SDS011;12385;51.412;5.540;2023-11-19T06:51:59;46.72;;;6.97;;
24261;SDS011;12385;51.412;5.540;2023-11-19T06:54:25;42.55;;;6.63;;
24261;SDS011;12385;51.412;5.540;2023-11-19T06:56:51;56.15;;;7.60;;
24261;SDS011;12385;51.412;5.540;2023-11-19T06:59:24;59.23;;;7.43;;
24261;SDS011;12385;51.412;5.540;2023-11-19T07:01:51;48.40;;;7.20;;
24261;SDS011;12385;51.412;5.540;2023-11-19T07:04:18;48.38;;;7.20;;
24261;SDS011;12385;51.412;5.540;2023-11-19T07:06:43;57.55;;;6.78;;
24261;SDS011;12385;51.412;5.540;2023-11-19T07:09:09;47.33;;;6.68;;
24261;SDS011;12385;51.412;5.540;2023-11-19T07:11:38;49.05;;;6.63;;
24261;SDS011;12385;51.412;5.540;2023-11-19T07:14:04;57.97;;;8.20;;
24261;SDS011;12385;51.412;5.540;2023-11-19T07:16:34;54.00;;;6.47;;
24261;SDS011;12385;51.412;5.540;2023-11-19T07:19:02;50.42;;;7.30;;
24261;SDS011;12385;51.412;5.540;2023-11-19T07:21:28;50.90;;;9.18;;
24261;SDS011;12385;51.412;5.540;2023-11-19T07:23:55;58.38;;;7.60;;
24261;SDS011;12385;51.412;5.540;2023-11-19T07:26:21;56.17;;;7.93;;
24261;SDS011;12385;51.412;5.540;2023-11-19T07:28:48;48.80;;;6.55;;
24261;SDS011;12385;51.412;5.540;2023-11-19T07:31:17;56.97;;;7.20;;
24261;SDS011;12385;51.412;5.540;2023-11-19T07:33:46;55.53;;;8.00;;
24261;SDS011;12385;51.412;5.540;2023-11-19T07:36:13;62.30;;;8.27;;
24261;SDS011;12385;51.412;5.540;2023-11-19T07:38:38;52.42;;;7.85;;
24261;SDS011;12385;51.412;5.540;2023-11-19T07:41:05;52.47;;;7.30;;
24261;SDS011;12385;51.412;5.540;2023-11-19T07:43:31;44.65;;;6.50;;
24261;SDS011;12385;51.412;5.540;2023-11-19T07:45:57;59.22;;;7.35;;
24261;SDS011;12385;51.412;5.540;2023-11-19T07:48:26;54.33;;;7.38;;
24261;SDS011;12385;51.412;5.540;2023-11-19T07:50:52;55.55;;;7.85;;
24261;SDS011;12385;51.412;5.540;2023-11-19T07:53:18;56.47;;;7.53;;
24261;SDS011;12385;51.412;5.540;2023-11-19T07:55:46;59.08;;;8.43;;
24261;SDS011;12385;51.412;5.540;2023-11-19T07:58:12;48.67;;;6.32;;
24261;SDS011;12385;51.412;5.540;2023-11-19T08:00:37;47.45;;;7.45;;
24261;SDS011;12385;51.412;5.540;2023-11-19T08:03:03;55.28;;;7.60;;
24261;SDS011;12385;51.412;5.540;2023-11-19T08:05:30;53.20;;;6.50;;
24261;SDS011;12385;51.412;5.540;2023-11-19T08:07:56;47.30;;;7.00;;
24261;SDS011;12385;51.412;5.540;2023-11-19T08:10:21;53.47;;;7.47;;
24261;SDS011;12385;51.412;5.540;2023-11-19T08:12:47;45.85;;;6.32;;
24261;SDS011;12385;51.412;5.540;2023-11-19T08:15:13;52.10;;;7.50;;
24261;SDS011;12385;51.412;5.540;2023-11-19T08:17:39;55.90;;;6.45;;
24261;SDS011;12385;51.412;5.540;2023-11-19T08:20:05;49.28;;;7.38;;
24261;SDS011;12385;51.412;5.540;2023-11-19T08:22:35;48.92;;;7.43;;
24261;SDS011;12385;51.412;5.540;2023-11-19T08:25:04;59.53;;;7.70;;
24261;SDS011;12385;51.412;5.540;2023-11-19T08:27:31;45.80;;;6.03;;
24261;SDS011;12385;51.412;5.540;2023-11-19T08:29:56;51.95;;;7.28;;
24261;SDS011;12385;51.412;5.540;2023-11-19T08:32:25;48.45;;;7.65;;
24261;SDS011;12385;51.412;5.540;2023-11-19T08:34:52;55.03;;;7.65;;
24261;SDS011;12385;51.412;5.540;2023-11-19T08:37:18;43.83;;;6.78;;
24261;SDS011;12385;51.412;5.540;2023-11-19T08:39:48;43.08;;;6.57;;
24261;SDS011;12385;51.412;5.540;2023-11-19T08:42:16;52.33;;;6.97;;
24261;SDS011;12385;51.412;5.540;2023-11-19T08:44:42;48.38;;;6.88;;
24261;SDS011;12385;51.412;5.540;2023-11-19T08:47:12;49.40;;;8.00;;
24261;SDS011;12385;51.412;5.540;2023-11-19T08:49:38;40.23;;;7.33;;
24261;SDS011;12385;51.412;5.540;2023-11-19T08:52:04;45.63;;;7.10;;
24261;SDS011;12385;51.412;5.540;2023-11-19T08:54:32;51.22;;;7.53;;
24261;SDS011;12385;51.412;5.540;2023-11-19T08:56:58;55.30;;;7.40;;
24261;SDS011;12385;51.412;5.540;2023-11-19T08:59:24;48.05;;;6.35;;
24261;SDS011;12385;51.412;5.540;2023-11-19T09:01:50;45.47;;;6.78;;
24261;SDS011;12385;51.412;5.540;2023-11-19T09:04:16;52.05;;;7.70;;
24261;SDS011;12385;51.412;5.540;2023-11-19T09:06:42;45.03;;;6.75;;
24261;SDS011;12385;51.412;5.540;2023-11-19T09:09:08;47.10;;;7.00;;
24261;SDS011;12385;51.412;5.540;2023-11-19T09:11:34;49.75;;;7.20;;
24261;SDS011;12385;51.412;5.540;2023-11-19T09:14:00;50.22;;;7.30;;
24261;SDS011;12385;51.412;5.540;2023-11-19T09:16:26;49.03;;;7.57;;
24261;SDS011;12385;51.412;5.540;2023-11-19T09:18:51;47.90;;;7.38;;
24261;SDS011;12385;51.412;5.540;2023-11-19T09:21:17;50.17;;;7.18;;
24261;SDS011;12385;51.412;5.540;2023-11-19T09:23:42;42.13;;;6.85;;
24261;SDS011;12385;51.412;5.540;2023-11-19T09:26:09;50.20;;;7.13;;
24261;SDS011;12385;51.412;5.540;2023-11-19T09:28:37;45.33;;;6.90;;
24261;SDS011;12385;51.412;5.540;2023-11-19T09:31:12;46.45;;;7.30;;
24261;SDS011;12385;51.412;5.540;2023-11-19T09:33:38;43.78;;;6.95;;
24261;SDS011;12385;51.412;5.540;2023-11-19T09:36:04;43.60;;;6.22;;
24261;SDS011;12385;51.412;5.540;2023-11-19T09:38:31;50.80;;;7.47;;
24261;SDS011;12385;51.412;5.540;2023-11-19T09:40:58;42.10;;;6.55;;
24261;SDS011;12385;51.412;5.540;2023-11-19T09:43:24;47.67;;;7.07;;
24261;SDS011;12385;51.412;5.540;2023-11-19T09:45:53;45.83;;;7.20;;
24261;SDS011;12385;51.412;5.540;2023-11-19T09:48:21;39.08;;;6.43;;
24261;SDS011;12385;51.412;5.540;2023-11-19T09:50:50;43.80;;;6.65;;
24261;SDS011;12385;51.412;5.540;2023-11-19T09:53:17;54.58;;;7.40;;
24261;SDS011;12385;51.412;5.540;2023-11-19T09:55:45;46.45;;;7.43;;
24261;SDS011;12385;51.412;5.540;2023-11-19T09:58:11;47.17;;;6.95;;
24261;SDS011;12385;51.412;5.540;2023-11-19T10:00:40;45.85;;;7.28;;
24261;SDS011;12385;51.412;5.540;2023-11-19T10:03:06;37.65;;;6.43;;
24261;SDS011;12385;51.412;5.540;2023-11-19T10:08:04;38.03;;;6.45;;
24261;SDS011;12385;51.412;5.540;2023-11-19T10:10:30;34.00;;;6.45;;
24261;SDS011;12385;51.412;5.540;2023-11-19T10:12:55;40.00;;;5.60;;
24261;SDS011;12385;51.412;5.540;2023-11-19T10:15:22;39.78;;;6.18;;
24261;SDS011;12385;51.412;5.540;2023-11-19T10:17:50;44.47;;;6.28;;
24261;SDS011;12385;51.412;5.540;2023-11-19T10:20:17;38.92;;;5.80;;
24261;SDS011;12385;51.412;5.540;2023-11-19T10:22:42;37.72;;;6.07;;
24261;SDS011;12385;51.412;5.540;2023-11-19T10:25:27;39.58;;;6.05;;
24261;SDS011;12385;51.412;5.540;2023-11-19T10:27:54;39.38;;;5.82;;
24261;SDS011;12385;51.412;5.540;2023-11-19T10:30:21;46.20;;;6.55;;
24261;SDS011;12385;51.412;5.540;2023-11-19T10:35:52;35.95;;;5.65;;
24261;SDS011;12385;51.412;5.540;2023-11-19T10:38:21;35.35;;;5.75;;
24261;SDS011;12385;51.412;5.540;2023-11-19T10:40:48;40.67;;;6.80;;
24261;SDS011;12385;51.412;5.540;2023-11-19T10:43:15;37.78;;;6.13;;
24261;SDS011;12385;51.412;5.540;2023-11-19T10:45:42;39.25;;;6.65;;
24261;SDS011;12385;51.412;5.540;2023-11-19T10:48:08;33.80;;;5.55;;
24261;SDS011;12385;51.412;5.540;2023-11-19T10:50:35;33.45;;;5.65;;
24261;SDS011;12385;51.412;5.540;2023-11-19T10:53:03;36.88;;;6.05;;
24261;SDS011;12385;51.412;5.540;2023-11-19T10:55:30;39.38;;;5.68;;
24261;SDS011;12385;51.412;5.540;2023-11-19T10:58:02;35.35;;;5.75;;
24261;SDS011;12385;51.412;5.540;2023-11-19T11:00:48;35.75;;;4.97;;
24261;SDS011;12385;51.412;5.540;2023-11-19T11:03:17;34.13;;;5.65;;
24261;SDS011;12385;51.412;5.540;2023-11-19T11:05:46;34.88;;;5.05;;
24261;SDS011;12385;51.412;5.540;2023-11-19T11:08:12;37.22;;;5.43;;
24261;SDS011;12385;51.412;5.540;2023-11-19T11:10:52;38.97;;;6.32;;
24261;SDS011;12385;51.412;5.540;2023-11-19T11:13:22;38.13;;;5.80;;
24261;SDS011;12385;51.412;5.540;2023-11-19T11:15:52;34.65;;;5.90;;
24261;SDS011;12385;51.412;5.540;2023-11-19T11:18:21;32.10;;;5.47;;
24261;SDS011;12385;51.412;5.540;2023-11-19T11:20:48;33.45;;;5.43;;
24261;SDS011;12385;51.412;5.540;2023-11-19T11:29:00;33.88;;;4.88;;
24261;SDS011;12385;51.412;5.540;2023-11-19T11:39:39;33.00;;;4.90;;
24261;SDS011;12385;51.412;5.540;2023-11-19T11:50:16;34.35;;;5.65;;
24261;SDS011;12385;51.412;5.540;2023-11-19T11:57:51;33.25;;;5.07;;
24261;SDS011;12385;51.412;5.540;2023-11-19T12:00:26;31.98;;;5.57;;
24261;SDS011;12385;51.412;5.540;2023-11-19T12:02:54;33.85;;;5.45;;
24261;SDS011;12385;51.412;5.540;2023-11-19T12:05:26;42.70;;;5.47;;
24261;SDS011;12385;51.412;5.540;2023-11-19T12:07:56;27.48;;;4.85;;
24261;SDS011;12385;51.412;5.540;2023-11-19T12:10:31;41.10;;;6.10;;
24261;SDS011;12385;51.412;5.540;2023-11-19T12:13:02;36.33;;;5.43;;
24261;SDS011;12385;51.412;5.540;2023-11-19T12:15:33;37.05;;;5.55;;
24261;SDS011;12385;51.412;5.540;2023-11-19T12:18:28;37.20;;;5.93;;
24261;SDS011;12385;51.412;5.540;2023-11-19T12:20:55;40.42;;;5.47;;
24261;SDS011;12385;51.412;5.540;2023-11-19T12:23:25;40.10;;;5.45;;
24261;SDS011;12385;51.412;5.540;2023-11-19T12:25:54;38.08;;;5.35;;
24261;SDS011;12385;51.412;5.540;2023-11-19T12:28:21;31.98;;;5.43;;
24261;SDS011;12385;51.412;5.540;2023-11-19T12:30:51;39.92;;;6.00;;
24261;SDS011;12385;51.412;5.540;2023-11-19T12:33:17;31.17;;;5.38;;
24261;SDS011;12385;51.412;5.540;2023-11-19T12:35:44;34.88;;;5.40;;
24261;SDS011;12385;51.412;5.540;2023-11-19T12:38:23;36.88;;;5.75;;
24261;SDS011;12385;51.412;5.540;2023-11-19T12:41:08;36.33;;;5.85;;
24261;SDS011;12385;51.412;5.540;2023-11-19T12:43:36;32.53;;;4.82;;
24261;SDS011;12385;51.412;5.540;2023-11-19T12:48:46;31.58;;;5.70;;
24261;SDS011;12385;51.412;5.540;2023-11-19T12:51:13;27.85;;;5.28;;
24261;SDS011;12385;51.412;5.540;2023-11-19T12:53:51;26.25;;;5.47;;
24261;SDS011;12385;51.412;5.540;2023-11-19T12:56:21;29.80;;;5.13;;
24261;SDS011;12385;51.412;5.540;2023-11-19T12:58:47;32.35;;;5.25;;
24261;SDS011;12385;51.412;5.540;2023-11-19T13:01:18;28.02;;;4.70;;
24261;SDS011;12385;51.412;5.540;2023-11-19T13:03:46;29.27;;;5.22;;
24261;SDS011;12385;51.412;5.540;2023-11-19T13:06:14;41.05;;;5.78;;
24261;SDS011;12385;51.412;5.540;2023-11-19T13:08:41;31.45;;;4.90;;
24261;SDS011;12385;51.412;5.540;2023-11-19T13:11:11;41.13;;;5.47;;
24261;SDS011;12385;51.412;5.540;2023-11-19T13:16:23;36.83;;;5.28;;
24261;SDS011;12385;51.412;5.540;2023-11-19T13:18:50;29.98;;;5.55;;
24261;SDS011;12385;51.412;5.540;2023-11-19T13:21:16;36.47;;;5.55;;
24261;SDS011;12385;51.412;5.540;2023-11-19T13:23:42;36.00;;;5.13;;
24261;SDS011;12385;51.412;5.540;2023-11-19T13:26:08;32.42;;;5.13;;
24261;SDS011;12385;51.412;5.540;2023-11-19T13:28:34;34.38;;;5.30;;
24261;SDS011;12385;51.412;5.540;2023-11-19T13:31:00;33.03;;;5.13;;
24261;SDS011;12385;51.412;5.540;2023-11-19T13:33:26;32.45;;;5.25;;
24261;SDS011;12385;51.412;5.540;2023-11-19T13:35:51;38.35;;;5.38;;
24261;SDS011;12385;51.412;5.540;2023-11-19T13:38:18;36.95;;;5.47;;
24261;SDS011;12385;51.412;5.540;2023-11-19T13:40:43;34.83;;;5.35;;
24261;SDS011;12385;51.412;5.540;2023-11-19T13:43:09;33.53;;;5.50;;
24261;SDS011;12385;51.412;5.540;2023-11-19T13:45:35;33.75;;;5.90;;
24261;SDS011;12385;51.412;5.540;2023-11-19T13:48:00;28.73;;;4.88;;
24261;SDS011;12385;51.412;5.540;2023-11-19T13:50:26;33.97;;;5.15;;
24261;SDS011;12385;51.412;5.540;2023-11-19T13:52:53;30.90;;;5.28;;
24261;SDS011;12385;51.412;5.540;2023-11-19T13:55:21;31.63;;;4.65;;
24261;SDS011;12385;51.412;5.540;2023-11-19T13:57:47;36.13;;;5.47;;
24261;SDS011;12385;51.412;5.540;2023-11-19T14:00:14;36.45;;;5.38;;
24261;SDS011;12385;51.412;5.540;2023-11-19T14:02:45;34.53;;;5.05;;
24261;SDS011;12385;51.412;5.540;2023-11-19T14:05:17;28.10;;;4.80;;
24261;SDS011;12385;51.412;5.540;2023-11-19T14:07:43;41.60;;;5.70;;
24261;SDS011;12385;51.412;5.540;2023-11-19T14:10:09;36.33;;;6.00;;
24261;SDS011;12385;51.412;5.540;2023-11-19T14:12:36;26.45;;;4.72;;
24261;SDS011;12385;51.412;5.540;2023-11-19T14:15:02;30.95;;;5.25;;
24261;SDS011;12385;51.412;5.540;2023-11-19T14:17:30;30.98;;;5.20;;
24261;SDS011;12385;51.412;5.540;2023-11-19T14:19:56;37.38;;;5.78;;
24261;SDS011;12385;51.412;5.540;2023-11-19T14:22:22;37.05;;;5.10;;
24261;SDS011;12385;51.412;5.540;2023-11-19T14:24:48;39.08;;;5.40;;
24261;SDS011;12385;51.412;5.540;2023-11-19T14:27:13;33.80;;;4.72;;
24261;SDS011;12385;51.412;5.540;2023-11-19T14:29:39;41.40;;;5.75;;
24261;SDS011;12385;51.412;5.540;2023-11-19T14:32:05;43.40;;;6.05;;
24261;SDS011;12385;51.412;5.540;2023-11-19T14:34:31;40.65;;;6.28;;
24261;SDS011;12385;51.412;5.540;2023-11-19T14:36:57;30.27;;;5.28;;
24261;SDS011;12385;51.412;5.540;2023-11-19T14:39:24;35.28;;;5.60;;
24261;SDS011;12385;51.412;5.540;2023-11-19T14:41:50;41.42;;;6.00;;
24261;SDS011;12385;51.412;5.540;2023-11-19T14:44:17;39.67;;;5.63;;
24261;SDS011;12385;51.412;5.540;2023-11-19T14:46:45;37.67;;;5.72;;
24261;SDS011;12385;51.412;5.540;2023-11-19T14:49:11;35.03;;;4.82;;
24261;SDS011;12385;51.412;5.540;2023-11-19T14:51:39;38.63;;;5.55;;
24261;SDS011;12385;51.412;5.540;2023-11-19T14:54:04;36.53;;;5.63;;
24261;SDS011;12385;51.412;5.540;2023-11-19T14:56:31;46.55;;;5.65;;
24261;SDS011;12385;51.412;5.540;2023-11-19T14:58:57;42.53;;;5.65;;
24261;SDS011;12385;51.412;5.540;2023-11-19T15:01:23;39.25;;;5.68;;
24261;SDS011;12385;51.412;5.540;2023-11-19T15:03:50;42.13;;;6.18;;
24261;SDS011;12385;51.412;5.540;2023-11-19T15:06:16;43.42;;;5.97;;
24261;SDS011;12385;51.412;5.540;2023-11-19T15:08:41;40.30;;;6.13;;
24261;SDS011;12385;51.412;5.540;2023-11-19T15:11:07;40.45;;;5.82;;
24261;SDS011;12385;51.412;5.540;2023-11-19T15:13:34;50.78;;;6.93;;
24261;SDS011;12385;51.412;5.540;2023-11-19T15:16:02;42.60;;;6.53;;